createdAt,value
2023-03-31T00:01:42.099Z,0.59
2023-03-31T00:04:13.751Z,0.60
2023-03-31T00:06:42.758Z,0.59
2023-03-31T00:09:13.186Z,0.59
2023-03-31T00:11:42.429Z,0.58
2023-03-31T00:14:11.104Z,0.57
2023-03-31T00:16:41.464Z,0.56
2023-03-31T00:19:18.064Z,0.56
2023-03-31T00:21:51.293Z,0.56
2023-03-31T00:24:19.888Z,0.56
2023-03-31T00:26:48.473Z,0.56
2023-03-31T00:29:17.119Z,0.55
2023-03-31T00:31:45.722Z,0.55
2023-03-31T00:34:14.786Z,0.56
2023-03-31T00:36:48.904Z,0.56
2023-03-31T00:39:19.179Z,0.55
2023-03-31T00:41:47.713Z,0.53
2023-03-31T00:44:24.499Z,0.53
2023-03-31T00:46:53.736Z,0.52
2023-03-31T00:49:45.372Z,0.51
2023-03-31T00:52:42.967Z,0.50
2023-03-31T00:55:15.425Z,0.50
2023-03-31T00:57:46.857Z,0.49
2023-03-31T01:00:16.044Z,0.49
2023-03-31T01:02:52.552Z,0.49
2023-03-31T01:05:26.368Z,0.50
2023-03-31T01:07:55.068Z,0.50
2023-03-31T01:10:23.638Z,0.51
2023-03-31T01:12:53.894Z,0.51
2023-03-31T01:15:22.547Z,0.52
2023-03-31T01:17:51.381Z,0.52
2023-03-31T01:20:58.016Z,0.54
2023-03-31T01:23:46.775Z,0.55
2023-03-31T01:26:50.251Z,0.56
2023-03-31T01:30:07.178Z,0.56
2023-03-31T01:33:02.601Z,0.57
2023-03-31T01:36:08.944Z,0.57
2023-03-31T01:38:51.290Z,0.56
2023-03-31T01:41:29.419Z,0.57
2023-03-31T01:44:18.108Z,0.57
2023-03-31T01:49:40.781Z,0.54
2023-03-31T01:52:17.631Z,0.55
2023-03-31T01:54:52.810Z,0.54
2023-03-31T01:57:30.163Z,0.51
2023-03-31T02:00:03.706Z,0.49
2023-03-31T02:02:51.695Z,0.49
2023-03-31T02:05:21.481Z,0.48
2023-03-31T02:08:02.535Z,0.46
2023-03-31T02:10:31.941Z,0.45
2023-03-31T02:13:05.184Z,0.44
2023-03-31T02:15:36.828Z,0.46
2023-03-31T02:18:11.454Z,0.47
2023-03-31T02:20:46.518Z,0.46
2023-03-31T02:23:15.713Z,0.45
2023-03-31T02:25:52.399Z,0.44
2023-03-31T02:28:24.035Z,0.43
2023-03-31T02:31:34.615Z,0.43
2023-03-31T02:34:06.094Z,0.43
2023-03-31T02:36:36.314Z,0.42
2023-03-31T02:39:08.174Z,0.42
2023-03-31T02:41:37.183Z,0.42
2023-03-31T02:44:05.753Z,0.41
2023-03-31T02:46:34.273Z,0.40
2023-03-31T02:49:03.663Z,0.41
2023-03-31T02:51:58.787Z,0.41
2023-03-31T02:54:50.752Z,0.41
2023-03-31T02:57:39.250Z,0.41
2023-03-31T03:00:29.825Z,0.42
2023-03-31T03:03:17.889Z,0.41
2023-03-31T03:05:50.593Z,0.40
2023-03-31T03:08:40.584Z,0.40
2023-03-31T03:11:26.539Z,0.41
2023-03-31T03:14:06.198Z,0.41
2023-03-31T03:16:38.359Z,0.42
2023-03-31T03:19:07.127Z,0.44
2023-03-31T03:21:35.507Z,0.46
2023-03-31T03:24:04.222Z,0.46
2023-03-31T03:26:35.459Z,0.47
2023-03-31T03:29:04.445Z,0.48
2023-03-31T03:31:33.943Z,0.50
2023-03-31T03:34:03.431Z,0.52
2023-03-31T03:36:33.151Z,0.52
2023-03-31T03:39:03.166Z,0.52
2023-03-31T03:41:33.490Z,0.53
2023-03-31T03:44:01.882Z,0.54
2023-03-31T03:46:30.893Z,0.56
2023-03-31T03:49:10.859Z,0.57
2023-03-31T03:51:39.600Z,0.60
2023-03-31T03:54:07.992Z,0.61
2023-03-31T03:56:38.298Z,0.63
2023-03-31T03:59:07.566Z,0.65
2023-03-31T04:01:39.603Z,0.68
2023-03-31T04:04:09.483Z,0.71
2023-03-31T04:06:38.514Z,0.76
2023-03-31T04:09:07.511Z,0.80
2023-03-31T04:11:36.587Z,0.85
2023-03-31T04:14:05.145Z,0.89
2023-03-31T04:16:34.789Z,0.93
2023-03-31T04:19:05.170Z,0.97
2023-03-31T04:21:36.419Z,1.01
2023-03-31T04:24:05.936Z,1.07
2023-03-31T04:26:44.052Z,1.12
2023-03-31T04:29:13.437Z,1.18
2023-03-31T04:31:43.166Z,1.25
2023-03-31T04:34:13.713Z,1.31
2023-03-31T04:36:47.945Z,1.35
2023-03-31T04:39:18.313Z,1.43
2023-03-31T04:41:49.167Z,1.51
2023-03-31T04:44:17.847Z,1.59
2023-03-31T04:46:46.582Z,1.69
2023-03-31T04:49:20.862Z,1.82
2023-03-31T04:51:49.451Z,1.95
2023-03-31T04:54:26.503Z,2.03
2023-03-31T04:56:55.132Z,2.06
2023-03-31T04:59:23.774Z,2.09
2023-03-31T05:01:53.436Z,2.13
2023-03-31T05:04:22.004Z,2.17
2023-03-31T05:06:51.394Z,2.22
2023-03-31T05:09:21.102Z,2.28
2023-03-31T05:11:51.936Z,2.29
2023-03-31T05:14:21.103Z,2.33
2023-03-31T05:16:49.613Z,2.41
2023-03-31T05:19:18.472Z,2.47
2023-03-31T05:21:46.896Z,2.51
2023-03-31T05:24:16.005Z,2.50
2023-03-31T05:26:52.889Z,2.47
2023-03-31T05:29:21.745Z,2.45
2023-03-31T05:31:50.243Z,2.49
2023-03-31T05:34:19.055Z,2.55
2023-03-31T05:36:48.537Z,2.63
2023-03-31T05:39:17.107Z,2.67
2023-03-31T05:41:45.784Z,2.66
2023-03-31T05:44:15.185Z,2.69
2023-03-31T05:46:43.599Z,2.76
2023-03-31T05:49:12.297Z,2.85
2023-03-31T05:51:40.863Z,2.91
2023-03-31T05:54:09.279Z,2.95
2023-03-31T05:56:37.900Z,3.02
2023-03-31T05:59:06.480Z,3.10
2023-03-31T06:01:35.693Z,3.23
2023-03-31T06:04:04.698Z,3.41
2023-03-31T06:06:37.594Z,3.64
2023-03-31T06:09:07.775Z,3.98
2023-03-31T06:11:36.772Z,4.44
2023-03-31T06:16:34.003Z,5.63
2023-03-31T06:19:02.631Z,6.21
2023-03-31T06:21:31.122Z,6.66
2023-03-31T06:24:00.636Z,7.22
2023-03-31T06:26:29.505Z,7.76
2023-03-31T06:28:57.982Z,8.29
2023-03-31T06:31:26.897Z,8.91
2023-03-31T06:33:55.728Z,9.33
2023-03-31T06:36:24.605Z,9.72
2023-03-31T06:38:52.978Z,10.25
2023-03-31T06:41:22.679Z,11.00
2023-03-31T06:43:51.452Z,11.58
2023-03-31T06:46:20.032Z,11.78
2023-03-31T06:48:49.722Z,11.98
2023-03-31T06:51:21.033Z,12.23
2023-03-31T06:53:49.769Z,12.38
2023-03-31T06:56:18.713Z,12.55
2023-03-31T06:58:48.457Z,12.76
2023-03-31T07:01:17.173Z,12.97
2023-03-31T07:03:48.041Z,13.16
2023-03-31T07:06:17.086Z,13.21
2023-03-31T07:08:46.193Z,13.14
2023-03-31T07:11:14.868Z,13.03
2023-03-31T07:13:43.654Z,12.95
2023-03-31T07:16:14.415Z,13.01
2023-03-31T07:18:43.578Z,13.01
2023-03-31T07:21:13.074Z,12.93
2023-03-31T07:23:42.157Z,12.86
2023-03-31T07:26:11.711Z,12.92
2023-03-31T07:28:40.828Z,13.18
2023-03-31T07:31:13.558Z,13.39
2023-03-31T07:33:42.024Z,13.36
2023-03-31T07:36:13.794Z,13.24
2023-03-31T07:38:47.101Z,13.03
2023-03-31T07:41:18.336Z,12.71
2023-03-31T07:43:46.746Z,12.49
2023-03-31T07:46:26.685Z,12.47
2023-03-31T07:48:55.980Z,12.63
2023-03-31T07:51:26.465Z,12.88
2023-03-31T07:53:55.697Z,13.05
2023-03-31T07:56:25.240Z,13.02
2023-03-31T07:58:57.340Z,12.80
2023-03-31T08:01:29.045Z,12.80
2023-03-31T08:03:59.377Z,12.93
2023-03-31T08:06:29.282Z,12.95
2023-03-31T08:08:58.158Z,12.88
2023-03-31T08:11:26.757Z,12.87
2023-03-31T08:13:55.802Z,12.92
2023-03-31T08:16:24.582Z,12.74
2023-03-31T08:18:54.574Z,12.56
2023-03-31T08:21:24.522Z,12.62
2023-03-31T08:24:01.594Z,12.57
2023-03-31T08:26:33.129Z,12.47
2023-03-31T08:29:01.595Z,12.44
2023-03-31T08:31:30.808Z,12.41
2023-03-31T08:33:59.458Z,12.23
2023-03-31T08:36:30.909Z,12.07
2023-03-31T08:38:59.798Z,12.13
2023-03-31T08:41:44.488Z,12.28
2023-03-31T08:44:37.611Z,12.37
2023-03-31T08:47:08.050Z,12.59
2023-03-31T08:49:42.715Z,12.78
2023-03-31T08:52:16.398Z,12.92
2023-03-31T08:54:47.414Z,13.08
2023-03-31T08:57:25.637Z,12.99
2023-03-31T08:59:58.541Z,12.99
2023-03-31T09:02:49.702Z,13.11
2023-03-31T09:05:43.354Z,13.21
2023-03-31T09:08:17.708Z,13.23
2023-03-31T09:10:57.248Z,13.19
2023-03-31T09:13:35.057Z,13.01
2023-03-31T09:16:05.211Z,12.77
2023-03-31T09:18:37.565Z,12.58
2023-03-31T09:21:12.808Z,12.52
2023-03-31T09:23:45.051Z,12.55
2023-03-31T09:26:26.788Z,12.41
2023-03-31T09:28:57.796Z,12.20
2023-03-31T09:31:26.313Z,12.05
2023-03-31T09:33:59.857Z,11.97
2023-03-31T09:36:28.982Z,11.88
2023-03-31T09:38:59.191Z,11.92
2023-03-31T09:41:27.771Z,11.87
2023-03-31T09:43:56.716Z,11.77
2023-03-31T09:46:35.572Z,11.62
2023-03-31T09:49:11.873Z,11.53
2023-03-31T09:51:42.874Z,11.60
2023-03-31T09:54:22.355Z,11.64
2023-03-31T09:56:54.033Z,11.71
2023-03-31T09:59:35.172Z,11.78
2023-03-31T10:02:21.982Z,11.91
2023-03-31T10:04:51.157Z,11.87
2023-03-31T10:07:23.535Z,11.68
2023-03-31T10:09:54.168Z,11.62
2023-03-31T10:12:24.620Z,11.56
2023-03-31T10:14:54.832Z,11.56
2023-03-31T10:17:24.370Z,11.46
2023-03-31T10:19:58.201Z,11.36
2023-03-31T10:22:31.221Z,11.33
2023-03-31T10:25:11.073Z,11.32
2023-03-31T10:27:48.307Z,11.40
2023-03-31T10:30:21.384Z,11.41
2023-03-31T10:32:52.517Z,11.16
2023-03-31T10:35:35.614Z,10.90
2023-03-31T10:38:11.029Z,10.67
2023-03-31T10:40:40.814Z,10.44
2023-03-31T10:43:17.092Z,10.23
2023-03-31T10:45:49.559Z,10.06
2023-03-31T10:48:31.592Z,10.14
2023-03-31T10:51:28.975Z,10.17
2023-03-31T10:54:04.004Z,10.05
2023-03-31T10:57:03.545Z,10.08
2023-03-31T10:59:41.453Z,10.19
2023-03-31T11:02:41.405Z,10.20
2023-03-31T11:05:16.027Z,10.30
2023-03-31T11:08:00.167Z,10.42
2023-03-31T11:11:09.742Z,10.60
2023-03-31T11:13:44.212Z,10.68
2023-03-31T11:16:34.198Z,10.70
2023-03-31T11:19:21.805Z,10.78
2023-03-31T11:22:10.125Z,10.79
2023-03-31T11:24:47.672Z,10.72
2023-03-31T11:27:38.228Z,10.47
2023-03-31T11:30:29.253Z,10.10
2023-03-31T11:33:04.476Z,9.87
2023-03-31T11:35:48.153Z,9.77
2023-03-31T11:38:36.145Z,9.70
2023-03-31T11:41:34.529Z,9.70
2023-03-31T11:44:05.783Z,9.82
2023-03-31T11:46:51.652Z,9.84
2023-03-31T11:49:25.204Z,9.66
2023-03-31T11:52:00.045Z,9.50
2023-03-31T11:54:32.818Z,9.43
2023-03-31T11:57:13.698Z,9.35
2023-03-31T11:59:42.952Z,9.34
2023-03-31T12:02:18.474Z,9.43
2023-03-31T12:04:49.804Z,9.55
2023-03-31T12:07:24.267Z,9.56
2023-03-31T12:10:21.881Z,9.43
2023-03-31T12:13:02.554Z,9.46
2023-03-31T12:15:42.152Z,9.62
2023-03-31T12:18:15.131Z,9.81
2023-03-31T12:21:00.107Z,9.84
2023-03-31T12:23:30.479Z,9.70
2023-03-31T12:26:03.951Z,9.63
2023-03-31T12:28:37.560Z,9.68
2023-03-31T12:31:06.710Z,9.71
2023-03-31T12:33:42.852Z,9.65
2023-03-31T12:36:22.157Z,9.53
2023-03-31T12:38:58.898Z,9.40
2023-03-31T12:41:39.523Z,9.29
2023-03-31T12:44:35.994Z,9.26
2023-03-31T12:47:18.704Z,9.30
2023-03-31T12:50:10.052Z,9.33
2023-03-31T12:52:47.436Z,9.43
2023-03-31T12:55:39.553Z,9.54
2023-03-31T12:58:34.298Z,9.57
2023-03-31T13:01:16.398Z,9.45
2023-03-31T13:04:17.692Z,9.29
2023-03-31T13:06:50.789Z,9.21
2023-03-31T13:09:45.076Z,9.17
2023-03-31T13:12:21.968Z,9.13
2023-03-31T13:14:54.656Z,9.21
2023-03-31T13:17:59.836Z,9.34
2023-03-31T13:20:38.501Z,9.53
2023-03-31T13:23:23.191Z,9.64
2023-03-31T13:25:56.181Z,9.68
2023-03-31T13:28:39.157Z,9.75
2023-03-31T13:31:09.588Z,9.77
2023-03-31T13:34:07.585Z,9.75
2023-03-31T13:36:48.948Z,9.62
2023-03-31T13:39:41.848Z,9.48
2023-03-31T13:42:22.665Z,9.34
2023-03-31T13:45:14.342Z,9.21
2023-03-31T13:47:54.679Z,9.08
2023-03-31T13:50:33.208Z,8.94
2023-03-31T13:53:08.427Z,8.79
2023-03-31T13:56:01.571Z,8.67
2023-03-31T13:58:45.611Z,8.58
2023-03-31T14:01:36.363Z,8.49
2023-03-31T14:04:23.798Z,8.40
2023-03-31T14:06:58.459Z,8.36
2023-03-31T14:09:32.985Z,8.28
2023-03-31T14:12:01.756Z,8.20
2023-03-31T14:14:30.664Z,8.17
2023-03-31T14:17:02.224Z,8.12
2023-03-31T14:19:59.239Z,8.08
2023-03-31T14:22:57.853Z,8.00
2023-03-31T14:25:45.180Z,7.83
2023-03-31T14:28:54.417Z,7.61
2023-03-31T14:31:26.805Z,7.34
2023-03-31T14:34:14.528Z,7.13
2023-03-31T14:37:08.333Z,6.92
2023-03-31T14:39:40.739Z,6.75
2023-03-31T14:42:17.119Z,6.62
2023-03-31T14:44:47.162Z,6.51
2023-03-31T14:47:29.404Z,6.42
2023-03-31T14:50:13.622Z,6.34
2023-03-31T14:52:50.081Z,6.29
2023-03-31T14:55:22.570Z,6.21
2023-03-31T14:57:53.666Z,6.12
2023-03-31T15:00:30.744Z,6.04
2023-03-31T15:03:19.054Z,5.96
2023-03-31T15:05:49.831Z,5.91
2023-03-31T15:08:20.814Z,5.85
2023-03-31T15:10:58.836Z,5.77
2023-03-31T15:13:37.360Z,5.69
2023-03-31T15:16:28.609Z,5.63
2023-03-31T15:19:06.548Z,5.54
2023-03-31T15:21:37.692Z,5.48
2023-03-31T15:24:06.576Z,5.43
2023-03-31T15:26:44.920Z,5.36
2023-03-31T15:29:19.744Z,5.31
2023-03-31T15:31:48.480Z,5.25
2023-03-31T15:34:27.326Z,5.19
2023-03-31T15:36:56.717Z,5.12
2023-03-31T15:39:26.520Z,5.05
2023-03-31T15:41:54.920Z,5.00
2023-03-31T15:44:26.679Z,4.95
2023-03-31T15:47:02.804Z,4.89
2023-03-31T15:49:31.624Z,4.87
2023-03-31T15:52:01.643Z,4.84
2023-03-31T15:54:36.077Z,4.81
2023-03-31T15:57:05.768Z,4.78
2023-03-31T16:02:44.253Z,4.74
2023-03-31T16:05:43.707Z,4.70
2023-03-31T16:08:38.850Z,4.65
2023-03-31T16:11:13.625Z,4.62
2023-03-31T16:13:44.610Z,4.58
2023-03-31T16:16:15.464Z,4.54
2023-03-31T16:18:47.178Z,4.52
2023-03-31T16:21:24.760Z,4.50
2023-03-31T16:23:54.344Z,4.51
2023-03-31T16:26:28.706Z,4.52
2023-03-31T16:28:57.977Z,4.52
2023-03-31T16:31:31.444Z,4.55
2023-03-31T16:34:04.093Z,4.57
2023-03-31T16:36:32.653Z,4.58
2023-03-31T16:39:05.060Z,4.57
2023-03-31T16:41:35.303Z,4.58
2023-03-31T16:44:04.443Z,4.61
2023-03-31T16:46:33.241Z,4.63
2023-03-31T16:49:02.169Z,4.64
2023-03-31T16:51:31.952Z,4.69
2023-03-31T16:54:01.739Z,4.74
2023-03-31T16:56:31.232Z,4.80
2023-03-31T16:59:00.163Z,4.85
2023-03-31T17:01:28.545Z,4.91
2023-03-31T17:03:57.191Z,4.95
2023-03-31T17:06:25.766Z,4.95
2023-03-31T17:08:54.269Z,4.95
2023-03-31T17:11:22.984Z,4.94
2023-03-31T17:13:51.456Z,4.93
2023-03-31T17:16:26.993Z,4.91
2023-03-31T17:19:04.926Z,4.89
2023-03-31T17:21:33.498Z,4.87
2023-03-31T17:24:03.288Z,4.86
2023-03-31T17:26:32.703Z,4.84
2023-03-31T17:29:01.396Z,4.81
2023-03-31T17:31:31.338Z,4.79
2023-03-31T17:33:59.991Z,4.77
2023-03-31T17:36:31.347Z,4.77
2023-03-31T17:39:00.563Z,4.76
2023-03-31T17:41:30.158Z,4.74
2023-03-31T17:43:59.037Z,4.71
2023-03-31T17:46:27.712Z,4.69
2023-03-31T17:48:59.274Z,4.67
2023-03-31T17:51:28.969Z,4.63
2023-03-31T17:53:57.698Z,4.67
2023-03-31T17:56:28.666Z,4.70
2023-03-31T17:58:57.709Z,4.68
2023-03-31T18:01:26.213Z,4.66
2023-03-31T18:03:57.888Z,4.66
2023-03-31T18:06:27.959Z,4.63
2023-03-31T18:08:57.180Z,4.59
2023-03-31T18:11:26.883Z,4.56
2023-03-31T18:13:56.607Z,4.54
2023-03-31T18:16:25.327Z,4.55
2023-03-31T18:18:54.148Z,4.54
2023-03-31T18:21:27.340Z,4.51
2023-03-31T18:23:55.691Z,4.47
2023-03-31T18:26:25.152Z,4.45
2023-03-31T18:28:55.652Z,4.45
2023-03-31T18:31:27.118Z,4.44
2023-03-31T18:33:55.733Z,4.44
2023-03-31T18:36:24.510Z,4.44
2023-03-31T18:38:53.726Z,4.45
2023-03-31T18:41:23.281Z,4.45
2023-03-31T18:43:53.098Z,4.45
2023-03-31T18:46:21.829Z,4.42
2023-03-31T18:48:51.591Z,4.39
2023-03-31T18:51:20.387Z,4.36
2023-03-31T18:53:50.709Z,4.33
2023-03-31T18:56:19.699Z,4.30
2023-03-31T18:58:52.001Z,4.27
2023-03-31T19:01:21.050Z,4.23
2023-03-31T19:03:50.782Z,4.22
2023-03-31T19:06:22.650Z,4.21
2023-03-31T19:08:52.256Z,4.19
2023-03-31T19:11:20.838Z,4.19
2023-03-31T19:13:49.852Z,4.19
2023-03-31T19:16:42.557Z,4.14
2023-03-31T19:19:12.929Z,4.10
2023-03-31T19:21:42.924Z,4.06
2023-03-31T19:24:12.102Z,4.04
2023-03-31T19:26:42.243Z,4.01
2023-03-31T19:29:11.536Z,3.97
2023-03-31T19:31:41.777Z,3.94
2023-03-31T19:34:11.845Z,3.91
2023-03-31T19:36:40.572Z,3.89
2023-03-31T19:39:09.669Z,3.86
2023-03-31T19:41:39.057Z,3.86
2023-03-31T19:44:07.539Z,3.86
2023-03-31T19:46:36.479Z,3.86
2023-03-31T19:49:05.235Z,3.87
2023-03-31T19:51:34.565Z,3.88
2023-03-31T19:54:03.127Z,3.91
2023-03-31T19:56:33.679Z,3.94
2023-03-31T19:59:02.889Z,3.96
2023-03-31T20:01:32.100Z,3.97
2023-03-31T20:04:06.473Z,3.98
2023-03-31T20:06:35.143Z,3.99
2023-03-31T20:09:06.431Z,4.00
2023-03-31T20:11:35.767Z,3.98
2023-03-31T20:14:04.473Z,3.98
2023-03-31T20:16:34.667Z,3.99
2023-03-31T20:19:05.537Z,3.99
2023-03-31T20:21:36.743Z,3.99
2023-03-31T20:24:06.281Z,3.98
2023-03-31T20:26:36.369Z,3.97
2023-03-31T20:29:04.883Z,3.95
2023-03-31T20:31:39.288Z,3.94
2023-03-31T20:34:12.730Z,3.94
2023-03-31T20:36:42.472Z,3.94
2023-03-31T20:39:12.114Z,3.96
2023-03-31T20:41:40.696Z,3.98
2023-03-31T20:44:15.547Z,4.01
2023-03-31T20:46:44.804Z,4.04
2023-03-31T20:49:13.421Z,4.04
2023-03-31T20:51:42.707Z,4.03
2023-03-31T20:54:12.219Z,4.03
2023-03-31T20:56:41.629Z,4.03
2023-03-31T20:59:13.175Z,4.04
2023-03-31T21:01:58.652Z,4.05
2023-03-31T21:04:28.120Z,4.08
2023-03-31T21:06:56.618Z,4.09
2023-03-31T21:09:25.608Z,4.09
2023-03-31T21:11:55.454Z,4.06
2023-03-31T21:14:24.094Z,4.03
2023-03-31T21:16:52.495Z,3.96
2023-03-31T21:19:21.774Z,3.90
2023-03-31T21:21:50.177Z,3.84
2023-03-31T21:24:18.636Z,3.80
2023-03-31T21:26:47.150Z,3.77
2023-03-31T21:29:16.498Z,3.72
2023-03-31T21:31:46.561Z,3.66
2023-03-31T21:34:16.186Z,3.63
2023-03-31T21:36:45.043Z,3.62
2023-03-31T21:39:13.522Z,3.60
2023-03-31T21:41:42.577Z,3.60
2023-03-31T21:44:11.097Z,3.58
2023-03-31T21:46:39.832Z,3.55
2023-03-31T21:49:08.588Z,3.50
2023-03-31T21:51:37.205Z,3.43
2023-03-31T21:54:07.149Z,3.37
2023-03-31T21:56:35.762Z,3.30
2023-03-31T21:59:04.961Z,3.22
2023-03-31T22:01:34.433Z,3.14
2023-03-31T22:04:04.881Z,3.07
2023-03-31T22:06:34.678Z,3.04
2023-03-31T22:09:03.686Z,3.04
2023-03-31T22:11:32.585Z,3.10
2023-03-31T22:14:02.829Z,3.22
2023-03-31T22:16:32.134Z,3.35
2023-03-31T22:19:01.572Z,3.49
2023-03-31T22:21:43.756Z,3.57
2023-03-31T22:24:13.946Z,3.58
2023-03-31T22:26:42.971Z,3.54
2023-03-31T22:29:15.303Z,3.50
2023-03-31T22:31:44.846Z,3.45
2023-03-31T22:34:13.560Z,3.38
2023-03-31T22:36:42.528Z,3.34
2023-03-31T22:39:11.332Z,3.30
2023-03-31T22:41:39.946Z,3.27
2023-03-31T22:44:08.939Z,3.26
2023-03-31T22:46:40.811Z,3.28
2023-03-31T22:49:09.710Z,3.30
2023-03-31T22:51:40.734Z,3.30
2023-03-31T22:54:15.135Z,3.29
2023-03-31T22:56:44.332Z,3.29
2023-03-31T22:59:12.743Z,3.29
2023-03-31T23:01:42.131Z,3.30
2023-03-31T23:04:10.894Z,3.30
2023-03-31T23:06:39.431Z,3.29
2023-03-31T23:09:08.264Z,3.29
2023-03-31T23:11:37.495Z,3.29
2023-03-31T23:14:06.278Z,3.27
2023-03-31T23:16:35.397Z,3.24
2023-03-31T23:19:03.782Z,3.26
2023-03-31T23:21:32.864Z,3.29
2023-03-31T23:24:02.072Z,3.31
2023-03-31T23:26:32.730Z,3.32
2023-03-31T23:29:02.630Z,3.34
2023-03-31T23:31:32.468Z,3.36
2023-03-31T23:34:01.305Z,3.35
2023-03-31T23:36:31.325Z,3.36
2023-03-31T23:39:00.799Z,3.35
2023-03-31T23:41:30.630Z,3.35
2023-03-31T23:44:00.051Z,3.35
2023-03-31T23:46:32.102Z,3.37
2023-03-31T23:49:02.970Z,3.37
2023-03-31T23:51:31.968Z,3.39
2023-03-31T23:54:00.771Z,3.40
2023-03-31T23:56:32.167Z,3.41
2023-03-31T23:59:01.269Z,3.41
